createdAt,value
2024-01-29T00:02:18.877Z,97472.13
2024-01-29T00:04:45.910Z,97462.09
2024-01-29T00:07:12.963Z,97467.53
2024-01-29T00:09:40.026Z,97469.47
2024-01-29T00:12:07.292Z,97468.66
2024-01-29T00:14:34.280Z,97470.75
2024-01-29T00:17:01.194Z,97473.81
2024-01-29T00:19:28.230Z,97469.31
2024-01-29T00:21:55.365Z,97475.19
2024-01-29T00:24:22.821Z,97477.56
2024-01-29T00:26:49.758Z,97469.22
2024-01-29T00:29:16.683Z,97472.97
2024-01-29T00:31:43.618Z,97467.94
2024-01-29T00:34:10.739Z,97469.75
2024-01-29T00:36:37.826Z,97467.41
2024-01-29T00:39:04.765Z,97460.16
2024-01-29T00:41:31.728Z,97464.47
2024-01-29T00:43:58.700Z,97465.44
2024-01-29T00:46:25.667Z,97461.00
2024-01-29T00:48:52.693Z,97466.16
2024-01-29T00:51:19.724Z,97469.78
2024-01-29T00:53:46.677Z,97469.47
2024-01-29T00:56:13.633Z,97471.94
2024-01-29T00:58:40.575Z,97460.81
2024-01-29T01:01:07.569Z,97467.75
2024-01-29T01:03:34.745Z,97458.16
2024-01-29T01:06:01.811Z,97457.19
2024-01-29T01:08:28.778Z,97460.69
2024-01-29T01:10:55.766Z,97460.59
2024-01-29T01:13:22.728Z,97465.44
2024-01-29T01:15:49.745Z,97467.94
2024-01-29T01:18:16.973Z,97472.69
2024-01-29T01:20:43.954Z,97475.06
2024-01-29T01:23:11.905Z,97482.00
2024-01-29T01:25:38.857Z,97477.84
2024-01-29T01:28:06.161Z,97482.16
2024-01-29T01:30:33.230Z,97478.97
2024-01-29T01:33:00.188Z,97483.41
2024-01-29T01:35:27.182Z,97481.84
2024-01-29T01:37:54.108Z,97480.41
2024-01-29T01:40:21.121Z,97482.78
2024-01-29T01:42:48.165Z,97492.28
2024-01-29T01:45:15.110Z,97493.25
2024-01-29T01:47:42.622Z,97495.47
2024-01-29T01:50:09.940Z,97491.03
2024-01-29T01:52:37.113Z,97499.63
2024-01-29T01:55:04.335Z,97500.31
2024-01-29T01:57:31.438Z,97491.31
2024-01-29T01:59:58.392Z,97487.41
2024-01-29T02:02:25.387Z,97488.53
2024-01-29T02:04:52.342Z,97489.72
2024-01-29T02:07:19.530Z,97485.81
2024-01-29T02:09:46.613Z,97487.81
2024-01-29T02:12:13.620Z,97483.88
2024-01-29T02:14:40.606Z,97478.19
2024-01-29T02:17:07.387Z,97486.47
2024-01-29T02:19:34.297Z,97483.59
2024-01-29T02:22:01.358Z,97476.66
2024-01-29T02:24:28.252Z,97473.19
2024-01-29T02:26:55.025Z,97468.75
2024-01-29T02:29:21.810Z,97474.88
2024-01-29T02:31:48.613Z,97467.22
2024-01-29T02:34:15.515Z,97470.69
2024-01-29T02:36:44.614Z,97470.41
2024-01-29T02:39:11.416Z,97476.81
2024-01-29T02:41:38.190Z,97469.44
2024-01-29T02:44:05.206Z,97473.63
2024-01-29T02:46:32.070Z,97471.78
2024-01-29T02:48:58.940Z,97473.06
2024-01-29T02:51:25.807Z,97473.50
2024-01-29T02:53:52.634Z,97479.19
2024-01-29T02:56:19.394Z,97480.41
2024-01-29T02:58:46.176Z,97480.19
2024-01-29T03:01:13.054Z,97477.00
2024-01-29T03:03:39.980Z,97481.41
2024-01-29T03:06:07.251Z,97479.50
2024-01-29T03:08:34.050Z,97476.88
2024-01-29T03:11:00.829Z,97477.28
2024-01-29T03:13:27.582Z,97473.66
2024-01-29T03:15:54.568Z,97467.53
2024-01-29T03:18:21.701Z,97466.22
2024-01-29T03:20:48.773Z,97476.97
2024-01-29T03:23:15.696Z,97466.56
2024-01-29T03:25:42.647Z,97468.88
2024-01-29T03:28:09.650Z,97471.97
2024-01-29T03:30:36.608Z,97464.41
2024-01-29T03:33:03.779Z,97469.41
2024-01-29T03:35:30.789Z,97469.31
2024-01-29T03:37:57.745Z,97471.22
2024-01-29T03:40:24.687Z,97467.22
2024-01-29T03:42:51.700Z,97465.75
2024-01-29T03:45:18.648Z,97464.56
2024-01-29T03:47:47.698Z,97473.06
2024-01-29T03:50:14.693Z,97465.38
2024-01-29T03:52:41.734Z,97471.38
2024-01-29T03:55:08.850Z,97467.56
2024-01-29T03:57:35.875Z,97470.81
2024-01-29T04:00:22.859Z,97467.31
2024-01-29T04:02:49.870Z,97468.44
2024-01-29T04:05:17.845Z,97468.72
2024-01-29T04:07:48.011Z,97466.94
2024-01-29T04:10:15.029Z,97464.78
2024-01-29T04:12:41.874Z,97467.22
2024-01-29T04:15:08.890Z,97461.16
2024-01-29T04:17:36.061Z,97464.56
2024-01-29T04:20:06.405Z,97457.03
2024-01-29T04:22:33.763Z,97456.78
2024-01-29T04:25:05.200Z,97457.88
2024-01-29T04:27:32.082Z,97463.03
2024-01-29T04:29:58.866Z,97457.94
2024-01-29T04:32:25.689Z,97459.47
2024-01-29T04:34:53.954Z,97456.00
2024-01-29T04:37:20.776Z,97461.53
2024-01-29T04:39:47.644Z,97458.88
2024-01-29T04:42:15.036Z,97451.28
2024-01-29T04:44:41.852Z,97453.00
2024-01-29T04:47:08.624Z,97460.53
2024-01-29T04:49:35.434Z,97457.75
2024-01-29T04:52:02.297Z,97459.84
2024-01-29T04:54:29.155Z,97451.56
2024-01-29T04:56:55.909Z,97457.53
2024-01-29T04:59:23.064Z,97454.88
2024-01-29T05:01:50.032Z,97459.88
2024-01-29T05:04:17.071Z,97452.94
2024-01-29T05:06:44.076Z,97458.63
2024-01-29T05:09:10.852Z,97462.13
2024-01-29T05:11:37.624Z,97457.91
2024-01-29T05:14:04.421Z,97463.72
2024-01-29T05:16:31.180Z,97465.41
2024-01-29T05:18:58.020Z,97473.34
2024-01-29T05:21:24.873Z,97461.81
2024-01-29T05:23:51.703Z,97462.34
2024-01-29T05:26:18.483Z,97459.03
2024-01-29T05:28:45.250Z,97464.59
2024-01-29T05:31:12.063Z,97460.00
2024-01-29T05:33:38.971Z,97461.19
2024-01-29T05:36:06.106Z,97465.38
2024-01-29T05:38:32.878Z,97468.19
2024-01-29T05:40:59.666Z,97464.56
2024-01-29T05:43:26.552Z,97462.94
2024-01-29T05:45:53.379Z,97468.66
2024-01-29T05:48:20.269Z,97465.97
2024-01-29T05:50:47.073Z,97467.47
2024-01-29T05:53:13.834Z,97474.88
2024-01-29T05:55:40.672Z,97472.13
2024-01-29T05:58:07.551Z,97472.09
2024-01-29T06:00:34.499Z,97465.38
2024-01-29T06:03:01.493Z,97469.06
2024-01-29T06:05:28.369Z,97461.63
2024-01-29T06:07:55.513Z,97462.91
2024-01-29T06:10:22.624Z,97465.63
2024-01-29T06:12:49.990Z,97468.19
2024-01-29T06:15:16.972Z,97466.38
2024-01-29T06:17:44.181Z,97472.63
2024-01-29T06:20:17.418Z,97468.75
2024-01-29T06:22:46.862Z,97460.53
2024-01-29T06:25:13.956Z,97468.59
2024-01-29T06:27:41.270Z,97463.63
2024-01-29T06:30:08.429Z,97462.28
2024-01-29T06:32:35.405Z,97467.78
2024-01-29T06:35:02.548Z,97469.81
2024-01-29T06:37:29.645Z,97472.94
2024-01-29T06:39:56.664Z,97470.19
2024-01-29T06:42:24.385Z,97470.06
2024-01-29T06:44:51.377Z,97470.44
2024-01-29T06:47:18.313Z,97474.13
2024-01-29T06:49:45.294Z,97474.66
2024-01-29T06:52:15.715Z,97472.63
2024-01-29T06:54:45.939Z,97475.22
2024-01-29T06:57:14.568Z,97478.88
2024-01-29T06:59:41.640Z,97467.53
2024-01-29T07:02:08.652Z,97475.66
2024-01-29T07:04:35.868Z,97478.28
2024-01-29T07:07:03.029Z,97477.06
2024-01-29T07:09:30.712Z,97478.94
2024-01-29T07:11:59.298Z,97483.66
2024-01-29T07:14:26.384Z,97482.97
2024-01-29T07:16:53.436Z,97483.25
2024-01-29T07:19:20.561Z,97483.59
2024-01-29T07:21:47.608Z,97482.75
2024-01-29T07:24:14.580Z,97485.22
2024-01-29T07:26:41.514Z,97497.03
2024-01-29T07:29:08.438Z,97494.94
2024-01-29T07:31:36.199Z,97504.13
2024-01-29T07:34:03.456Z,97498.75
2024-01-29T07:36:30.741Z,97497.78
2024-01-29T07:38:57.697Z,97487.38
2024-01-29T07:41:24.688Z,97488.91
2024-01-29T07:43:51.623Z,97486.56
2024-01-29T07:46:18.616Z,97496.72
2024-01-29T07:48:45.624Z,97493.38
2024-01-29T07:51:12.597Z,97491.03
2024-01-29T07:53:39.572Z,97490.78
2024-01-29T07:56:06.775Z,97497.06
2024-01-29T07:58:33.757Z,97491.75
2024-01-29T08:01:00.906Z,97499.56
2024-01-29T08:03:28.092Z,97503.59
2024-01-29T08:06:15.118Z,97502.75
2024-01-29T08:08:42.211Z,97498.16
2024-01-29T08:11:11.170Z,97499.63
2024-01-29T08:13:39.350Z,97504.63
2024-01-29T08:16:06.176Z,97499.66
2024-01-29T08:18:33.191Z,97503.38
2024-01-29T08:21:00.302Z,97504.09
2024-01-29T08:23:27.164Z,97500.34
2024-01-29T08:25:53.972Z,97506.47
2024-01-29T08:28:20.766Z,97504.09
2024-01-29T08:30:47.524Z,97503.38
2024-01-29T08:33:18.322Z,97503.28
2024-01-29T08:35:45.139Z,97499.84
2024-01-29T08:38:12.332Z,97501.88
2024-01-29T08:40:39.193Z,97513.19
2024-01-29T08:43:06.164Z,97515.16
2024-01-29T08:45:33.137Z,97517.38
2024-01-29T08:48:00.106Z,97515.38
2024-01-29T08:50:26.984Z,97522.16
2024-01-29T08:52:56.101Z,97520.53
2024-01-29T08:55:23.269Z,97513.63
2024-01-29T08:57:50.106Z,97520.53
2024-01-29T09:00:17.074Z,97526.00
2024-01-29T09:02:44.679Z,97524.06
2024-01-29T09:05:11.520Z,97525.44
2024-01-29T09:07:39.492Z,97525.31
2024-01-29T09:10:07.172Z,97528.09
2024-01-29T09:12:34.151Z,97528.66
2024-01-29T09:15:01.100Z,97532.56
2024-01-29T09:17:28.056Z,97528.53
2024-01-29T09:19:55.126Z,97533.94
2024-01-29T09:22:22.130Z,97534.78
2024-01-29T09:24:49.130Z,97532.97
2024-01-29T09:27:16.064Z,97535.66
2024-01-29T09:29:43.024Z,97536.03
2024-01-29T09:32:10.349Z,97540.06
2024-01-29T09:34:37.422Z,97537.00
2024-01-29T09:37:05.521Z,97538.56
2024-01-29T09:39:32.510Z,97538.53
2024-01-29T09:42:03.464Z,97536.06
2024-01-29T09:44:39.180Z,97549.13
2024-01-29T09:47:08.950Z,97553.00
2024-01-29T09:49:36.122Z,97551.63
2024-01-29T09:52:10.850Z,97557.88
2024-01-29T09:54:37.967Z,97551.34
2024-01-29T09:57:05.182Z,97560.97
2024-01-29T09:59:32.143Z,97555.75
2024-01-29T10:01:59.936Z,97558.53
2024-01-29T10:04:27.088Z,97557.13
2024-01-29T10:06:54.363Z,97562.25
2024-01-29T10:09:21.339Z,97565.66
2024-01-29T10:11:49.553Z,97567.50
2024-01-29T10:14:17.000Z,97564.66
2024-01-29T10:16:44.080Z,97558.59
2024-01-29T10:19:11.092Z,97560.69
2024-01-29T10:21:38.758Z,97564.88
2024-01-29T10:24:05.993Z,97560.28
2024-01-29T10:26:32.928Z,97563.38
2024-01-29T10:29:03.775Z,97567.41
2024-01-29T10:31:31.242Z,97558.34
2024-01-29T10:33:58.932Z,97552.47
2024-01-29T10:36:26.082Z,97558.19
2024-01-29T10:38:53.998Z,97561.56
2024-01-29T10:41:20.959Z,97560.84
2024-01-29T10:43:48.856Z,97553.75
2024-01-29T10:46:18.988Z,97554.31
2024-01-29T10:48:46.207Z,97550.69
2024-01-29T10:51:16.765Z,97558.09
2024-01-29T10:53:44.499Z,97548.34
2024-01-29T10:56:11.772Z,97546.81
2024-01-29T10:58:39.321Z,97544.09
2024-01-29T11:01:06.647Z,97534.38
2024-01-29T11:03:36.946Z,97529.22
2024-01-29T11:06:07.596Z,97532.38
2024-01-29T11:08:35.099Z,97532.63
2024-01-29T11:11:04.917Z,97533.91
2024-01-29T11:13:32.642Z,97535.09
2024-01-29T11:15:59.909Z,97535.66
2024-01-29T11:18:31.975Z,97526.31
2024-01-29T11:20:58.951Z,97529.16
2024-01-29T11:23:30.841Z,97525.09
2024-01-29T11:25:59.432Z,97513.38
2024-01-29T11:28:29.360Z,97518.47
2024-01-29T11:30:56.484Z,97516.41
2024-01-29T11:33:24.635Z,97514.91
2024-01-29T11:35:51.633Z,97517.75
2024-01-29T11:38:21.670Z,97510.06
2024-01-29T11:40:48.637Z,97506.28
2024-01-29T11:43:17.155Z,97507.00
2024-01-29T11:45:51.315Z,97502.59
2024-01-29T11:48:20.828Z,97501.56
2024-01-29T11:50:52.522Z,97503.00
2024-01-29T11:53:21.440Z,97502.47
2024-01-29T11:55:49.197Z,97501.72
2024-01-29T11:58:20.660Z,97495.50
2024-01-29T12:00:51.483Z,97494.19
2024-01-29T12:03:23.412Z,97490.34
2024-01-29T12:05:50.682Z,97492.31
2024-01-29T12:08:19.151Z,97487.06
2024-01-29T12:10:46.802Z,97486.03
2024-01-29T12:13:18.092Z,97473.34
2024-01-29T12:15:45.597Z,97476.97
2024-01-29T12:18:23.062Z,97469.41
2024-01-29T12:20:51.728Z,97476.13
2024-01-29T12:23:19.448Z,97471.06
2024-01-29T12:25:46.786Z,97467.34
2024-01-29T12:28:13.905Z,97462.13
2024-01-29T12:30:40.920Z,97457.88
2024-01-29T12:33:07.993Z,97457.41
2024-01-29T12:35:35.263Z,97460.28
2024-01-29T12:38:05.974Z,97456.13
2024-01-29T12:40:33.261Z,97455.16
2024-01-29T12:43:01.274Z,97450.44
2024-01-29T12:45:28.446Z,97446.97
2024-01-29T12:48:14.333Z,97453.63
2024-01-29T12:50:41.911Z,97441.16
2024-01-29T12:53:10.603Z,97440.19
2024-01-29T12:55:38.519Z,97432.97
2024-01-29T12:58:05.585Z,97441.03
2024-01-29T13:00:32.797Z,97437.66
2024-01-29T13:03:02.006Z,97433.84
2024-01-29T13:05:32.319Z,97435.06
2024-01-29T13:07:59.440Z,97438.75
2024-01-29T13:10:26.919Z,97437.53
2024-01-29T13:12:54.325Z,97426.91
2024-01-29T13:15:21.872Z,97431.69
2024-01-29T13:17:49.084Z,97427.56
2024-01-29T13:20:16.094Z,97417.28
2024-01-29T13:22:43.058Z,97421.03
2024-01-29T13:25:10.159Z,97415.22
2024-01-29T13:27:37.404Z,97423.72
2024-01-29T13:30:04.666Z,97416.59
2024-01-29T13:32:31.767Z,97417.59
2024-01-29T13:34:58.863Z,97414.63
2024-01-29T13:37:27.935Z,97416.53
2024-01-29T13:39:54.983Z,97414.31
2024-01-29T13:42:22.008Z,97414.72
2024-01-29T13:44:48.961Z,97410.56
2024-01-29T13:47:15.926Z,97410.91
2024-01-29T13:49:42.933Z,97407.75
2024-01-29T13:52:10.021Z,97409.91
2024-01-29T13:54:37.015Z,97398.63
2024-01-29T13:57:04.148Z,97399.50
2024-01-29T13:59:31.097Z,97399.63
2024-01-29T14:01:58.099Z,97400.78
2024-01-29T14:04:25.161Z,97396.47
2024-01-29T14:06:58.744Z,97404.13
2024-01-29T14:09:26.283Z,97391.59
2024-01-29T14:11:53.201Z,97391.44
2024-01-29T14:14:23.518Z,97386.13
2024-01-29T14:16:52.305Z,97389.78
2024-01-29T14:19:19.511Z,97386.44
2024-01-29T14:21:46.575Z,97394.75
2024-01-29T14:24:13.497Z,97388.59
2024-01-29T14:26:41.888Z,97390.53
2024-01-29T14:29:08.817Z,97393.53
2024-01-29T14:31:37.936Z,97388.84
2024-01-29T14:34:05.100Z,97388.38
2024-01-29T14:36:32.135Z,97390.03
2024-01-29T14:38:59.173Z,97392.19
2024-01-29T14:41:28.294Z,97392.19
2024-01-29T14:43:55.310Z,97397.00
2024-01-29T14:46:25.292Z,97395.50
2024-01-29T14:48:52.175Z,97392.38
2024-01-29T14:51:19.117Z,97395.19
2024-01-29T14:53:46.168Z,97389.31
2024-01-29T14:56:13.023Z,97387.38
2024-01-29T14:58:39.813Z,97394.03
2024-01-29T15:01:06.710Z,97389.53
2024-01-29T15:03:33.738Z,97391.38
2024-01-29T15:06:00.818Z,97388.72
2024-01-29T15:08:27.942Z,97390.59
2024-01-29T15:10:54.771Z,97388.94
2024-01-29T15:13:21.569Z,97392.59
2024-01-29T15:15:48.388Z,97392.94
2024-01-29T15:18:15.184Z,97392.09
2024-01-29T15:20:43.216Z,97395.72
2024-01-29T15:23:11.149Z,97390.44
2024-01-29T15:25:37.934Z,97388.59
2024-01-29T15:28:06.884Z,97396.06
2024-01-29T15:30:34.261Z,97395.72
2024-01-29T15:33:01.211Z,97389.56
2024-01-29T15:35:28.028Z,97387.22
2024-01-29T15:37:54.812Z,97388.16
2024-01-29T15:40:21.650Z,97389.31
2024-01-29T15:42:48.522Z,97381.84
2024-01-29T15:45:15.427Z,97386.84
2024-01-29T15:47:42.395Z,97382.66
2024-01-29T15:50:09.693Z,97388.00
2024-01-29T15:52:36.764Z,97389.50
2024-01-29T15:55:04.464Z,97390.53
2024-01-29T15:57:31.444Z,97392.28
2024-01-29T15:59:58.374Z,97388.84
2024-01-29T16:02:25.296Z,97393.47
2024-01-29T16:04:52.278Z,97398.78
2024-01-29T16:07:20.758Z,97391.97
2024-01-29T16:09:47.833Z,97399.66
2024-01-29T16:12:14.791Z,97393.44
2024-01-29T16:14:41.832Z,97393.88
2024-01-29T16:17:08.770Z,97400.09
2024-01-29T16:19:38.524Z,97397.28
2024-01-29T16:22:05.631Z,97397.38
2024-01-29T16:24:32.652Z,97402.63
2024-01-29T16:26:59.675Z,97398.47
2024-01-29T16:29:28.599Z,97409.34
2024-01-29T16:31:55.544Z,97411.34
2024-01-29T16:34:22.578Z,97412.88
2024-01-29T16:36:50.116Z,97416.31
2024-01-29T16:39:19.481Z,97409.31
2024-01-29T16:41:46.404Z,97414.47
2024-01-29T16:44:13.390Z,97412.81
2024-01-29T16:46:43.450Z,97412.81
2024-01-29T16:49:10.516Z,97410.78
2024-01-29T16:51:37.547Z,97414.94
2024-01-29T16:54:04.489Z,97420.84
2024-01-29T16:56:31.747Z,97416.19
2024-01-29T16:59:00.759Z,97418.13
2024-01-29T17:01:28.275Z,97423.81
2024-01-29T17:03:55.376Z,97419.47
2024-01-29T17:06:22.440Z,97424.38
2024-01-29T17:08:50.436Z,97427.16
2024-01-29T17:11:17.467Z,97423.66
2024-01-29T17:13:44.721Z,97426.88
2024-01-29T17:16:12.034Z,97422.94
2024-01-29T17:18:39.216Z,97423.06
2024-01-29T17:21:06.487Z,97426.41
2024-01-29T17:23:33.450Z,97424.84
2024-01-29T17:26:00.389Z,97424.53
2024-01-29T17:28:27.689Z,97422.97
2024-01-29T17:30:54.626Z,97431.09
2024-01-29T17:33:21.702Z,97428.38
2024-01-29T17:35:48.667Z,97428.97
2024-01-29T17:38:15.629Z,97426.41
2024-01-29T17:40:42.562Z,97430.56
2024-01-29T17:43:09.618Z,97428.28
2024-01-29T17:45:37.679Z,97425.22
2024-01-29T17:48:05.592Z,97428.06
2024-01-29T17:50:32.569Z,97431.09
2024-01-29T17:53:00.115Z,97434.84
2024-01-29T17:55:27.085Z,97434.13
2024-01-29T17:57:54.107Z,97436.31
2024-01-29T18:00:22.112Z,97436.63
2024-01-29T18:02:49.101Z,97434.56
2024-01-29T18:05:19.343Z,97438.06
2024-01-29T18:07:46.461Z,97431.53
2024-01-29T18:10:13.550Z,97435.94
2024-01-29T18:12:40.535Z,97438.75
2024-01-29T18:15:07.607Z,97443.81
2024-01-29T18:17:34.667Z,97442.31
2024-01-29T18:20:02.071Z,97440.09
2024-01-29T18:22:29.106Z,97449.53
2024-01-29T18:24:56.340Z,97444.53
2024-01-29T18:27:23.455Z,97450.22
2024-01-29T18:29:50.393Z,97453.84
2024-01-29T18:32:17.342Z,97448.06
2024-01-29T18:34:44.533Z,97453.06
2024-01-29T18:37:11.609Z,97459.53
2024-01-29T18:39:38.645Z,97449.44
2024-01-29T18:42:05.810Z,97460.53
2024-01-29T18:44:34.014Z,97455.38
2024-01-29T18:47:01.057Z,97454.38
2024-01-29T18:49:28.223Z,97457.19
2024-01-29T18:52:06.134Z,97462.34
2024-01-29T18:54:33.510Z,97459.72
2024-01-29T18:57:00.535Z,97463.19
2024-01-29T18:59:27.833Z,97463.19
2024-01-29T19:01:54.882Z,97459.31
2024-01-29T19:04:22.016Z,97466.75
2024-01-29T19:06:50.584Z,97472.00
2024-01-29T19:09:17.589Z,97471.22
2024-01-29T19:11:44.523Z,97472.53
2024-01-29T19:14:12.717Z,97467.69
2024-01-29T19:16:42.095Z,97462.91
2024-01-29T19:19:09.209Z,97470.25
2024-01-29T19:21:36.282Z,97471.28
2024-01-29T19:24:03.350Z,97478.56
2024-01-29T19:26:30.682Z,97474.94
2024-01-29T19:28:57.815Z,97475.22
2024-01-29T19:31:25.231Z,97476.00
2024-01-29T19:33:52.333Z,97487.63
2024-01-29T19:36:20.352Z,97480.31
2024-01-29T19:38:47.299Z,97481.16
2024-01-29T19:41:14.241Z,97478.44
2024-01-29T19:43:41.181Z,97484.34
2024-01-29T19:46:08.195Z,97482.06
2024-01-29T19:48:37.661Z,97484.03
2024-01-29T19:51:05.294Z,97478.34
2024-01-29T19:53:32.290Z,97476.22
2024-01-29T19:55:59.396Z,97481.78
2024-01-29T19:58:26.367Z,97479.56
2024-01-29T20:00:53.406Z,97475.63
2024-01-29T20:03:20.398Z,97476.47
2024-01-29T20:05:47.524Z,97485.63
2024-01-29T20:08:14.704Z,97490.31
2024-01-29T20:10:41.656Z,97487.94
2024-01-29T20:13:09.083Z,97489.16
2024-01-29T20:15:36.154Z,97484.78
2024-01-29T20:18:03.457Z,97490.72
2024-01-29T20:20:30.582Z,97488.91
2024-01-29T20:22:57.538Z,97488.28
2024-01-29T20:25:27.619Z,97489.78
2024-01-29T20:27:56.339Z,97483.91
2024-01-29T20:30:23.139Z,97488.16
2024-01-29T20:32:49.959Z,97491.41
2024-01-29T20:35:17.053Z,97485.56
2024-01-29T20:37:44.203Z,97486.31
2024-01-29T20:40:11.147Z,97482.97
2024-01-29T20:42:38.103Z,97485.06
2024-01-29T20:45:05.058Z,97479.06
2024-01-29T20:47:31.933Z,97485.19
2024-01-29T20:49:58.902Z,97475.09
2024-01-29T20:52:25.992Z,97483.44
2024-01-29T20:54:53.937Z,97485.72
2024-01-29T20:57:22.490Z,97479.63
2024-01-29T20:59:49.343Z,97474.94
2024-01-29T21:02:16.795Z,97483.28
2024-01-29T21:04:43.893Z,97486.47
2024-01-29T21:07:10.823Z,97484.94
2024-01-29T21:09:38.311Z,97490.31
2024-01-29T21:12:06.567Z,97488.66
2024-01-29T21:14:33.359Z,97483.88
2024-01-29T21:17:01.530Z,97496.00
2024-01-29T21:19:28.739Z,97490.91
2024-01-29T21:21:55.918Z,97486.16
2024-01-29T21:24:24.062Z,97493.31
2024-01-29T21:26:50.905Z,97493.56
2024-01-29T21:29:18.909Z,97498.56
2024-01-29T21:31:45.872Z,97499.25
2024-01-29T21:34:13.044Z,97497.91
2024-01-29T21:36:40.160Z,97501.41
2024-01-29T21:39:07.354Z,97498.97
2024-01-29T21:41:34.368Z,97505.03
2024-01-29T21:44:02.464Z,97497.09
2024-01-29T21:46:29.394Z,97503.38
2024-01-29T21:48:56.791Z,97502.75
2024-01-29T21:51:26.814Z,97508.34
2024-01-29T21:53:53.781Z,97510.25
2024-01-29T21:56:20.765Z,97511.09
2024-01-29T21:58:47.695Z,97505.00
2024-01-29T22:01:14.722Z,97505.06
2024-01-29T22:03:41.844Z,97503.44
2024-01-29T22:06:08.992Z,97508.50
2024-01-29T22:08:35.954Z,97504.31
2024-01-29T22:11:02.866Z,97511.59
2024-01-29T22:13:29.833Z,97509.81
2024-01-29T22:15:56.829Z,97505.38
2024-01-29T22:18:23.837Z,97509.63
2024-01-29T22:21:03.080Z,97509.28
2024-01-29T22:23:30.153Z,97514.53
2024-01-29T22:25:57.154Z,97517.72
2024-01-29T22:28:24.610Z,97517.44
2024-01-29T22:30:51.617Z,97508.75
2024-01-29T22:33:18.733Z,97506.44
2024-01-29T22:35:45.699Z,97515.31
2024-01-29T22:38:13.609Z,97514.59
2024-01-29T22:40:40.703Z,97512.88
2024-01-29T22:43:07.839Z,97515.81
2024-01-29T22:45:35.321Z,97519.53
2024-01-29T22:48:02.598Z,97524.56
2024-01-29T22:50:29.564Z,97525.31
2024-01-29T22:52:56.479Z,97533.22
2024-01-29T22:55:23.596Z,97532.50
2024-01-29T22:57:50.745Z,97527.44
2024-01-29T23:00:18.015Z,97531.75
2024-01-29T23:02:44.948Z,97532.00
2024-01-29T23:05:15.036Z,97528.66
2024-01-29T23:07:41.980Z,97538.22
2024-01-29T23:10:09.287Z,97538.84
2024-01-29T23:12:36.608Z,97528.94
2024-01-29T23:15:04.063Z,97533.38
2024-01-29T23:17:31.066Z,97533.88
2024-01-29T23:19:58.017Z,97529.50
2024-01-29T23:22:25.064Z,97536.84
2024-01-29T23:24:52.060Z,97535.28
2024-01-29T23:27:19.218Z,97542.75
2024-01-29T23:29:46.163Z,97541.19
2024-01-29T23:32:13.107Z,97535.72
2024-01-29T23:34:40.050Z,97545.66
2024-01-29T23:37:10.028Z,97541.22
2024-01-29T23:39:37.122Z,97546.66
2024-01-29T23:42:04.241Z,97542.97
2024-01-29T23:44:31.248Z,97548.81
2024-01-29T23:46:58.193Z,97542.81
2024-01-29T23:49:25.260Z,97546.06
2024-01-29T23:51:52.285Z,97535.56
2024-01-29T23:54:19.243Z,97534.13
2024-01-29T23:56:46.182Z,97535.41
2024-01-29T23:59:13.117Z,97538.25
